Crooksville, Ohio
Current Conditions -  °F | °C
As of 12:53 AM on Saturday 29 Nov 2014 (Local Time) from KZZV Reporting Station
Few Clouds Few Clouds  
Wind Chill: 23°   Ceiling: Unl
Heat Index: 29°   Visibility: 10mi
Dew Point: 19°   Wind: 6mph
Humidity: 67%   Direction: 160°SSE
Pressure: 30.14"   Gusts: NA
Location:  39.77°N, 82.09°W
Report Text: KZZV 290553Z AUTO 16005KT 10SM FEW110 M02/M07 A3014 RMK AO2 SLP215 T10171072 11011 21022 56012
Loading
Personal Weather Stations






























Interactive Weather Map New forecast layout! Learn more

10-Day Weather Forecast

Advertisements
Track Severe Weather on mobile